Station info - map view · info · telemetry · weather · raw · status · beacons · messages · bulletins · browse · moving · my account
Callsign, ship name or locator: Clear       
It is possible to search using wildcards (*?) after a prefix. Example: OH*
APRS station N4TPT-9 - show graphs
Map loading...
Mic-E message: Off duty
Location: 37°15.25' N 85°47.18' W - locator EM77CG51PA - show map - static map
5.9 miles East bearing 102° from Munfordville, Hart County, Kentucky, United States [?]
8.4 miles Northeast bearing 52° from Horse Cave, Hart County, Kentucky, United States
69.1 miles South bearing 181° from Louisville, Jefferson County, Kentucky, United States
91.0 miles Southwest bearing 233° from Lexington-Fayette, Fayette County, Kentucky, United States
Last position: 2021-05-07 11:49:27 EDT (1d 8h58m ago)
2021-05-07 10:49:27 CDT local time at Munfordville, United States [?]
Altitude: 725 ft
Course: 296°
Speed: 0 MPH
Device: Yaesu: FTM-400DR (rig)
Last path: N4TPT-9>SWQU2U via qAR,KY4DAG-4
Positions stored: 64
Other SSIDs: N4TPT-7 N4TPT-N N4TPT-Y
Stations near current position of N4TPT-9 - show more
callsign distance last heard - EDT      callsign distance last heard - EDT
W4RRK-157.6 miles 231°2021-05-05 17:50:11 N4TPT-Y8.8 miles 3°2021-04-08 21:41:00
N4TPT-N8.8 miles 2°2021-05-08 20:39:34 KA4UZO B9.3 miles 127°2021-05-08 20:30:48
KA4UZO-B9.3 miles 127°2021-05-08 20:30:58 KA4UZO-149.3 miles 127°2021-05-06 19:32:56
KC4QNZ B12.3 miles 116°2021-05-08 20:36:13 KC4QNZ-B12.3 miles 116°2021-05-08 20:36:23
KC4QNZ-1412.3 miles 116°2021-05-06 19:56:24 NM4P D13.5 miles 67°2021-05-08 20:41:16
NM4P-D13.5 miles 67°2021-05-08 20:41:26 WI4B-M15.1 miles 113°2021-04-27 19:59:05
WI4B B15.1 miles 113°2021-05-08 20:47:30 WI4B-B15.1 miles 113°2021-05-08 20:47:40
WI4B-N15.1 miles 113°2021-05-08 19:49:48 WI4B-1415.2 miles 113°2021-04-29 19:56:27
WA4UXJ B15.2 miles 113°2021-05-08 20:46:19 WA4UXJ-B15.2 miles 113°2021-05-08 20:46:29
KN4KOP-915.3 miles 9°2021-04-23 06:44:15 KN4KOP-i15.5 miles 8°2021-04-28 00:28:31
Stations which heard N4TPT-9 directly on radio –
callsign pkts first heard - EDT last heard longest (tx => rx) longest at - EDT
KB9RND-10 1 2021-05-06 16:48:45 2021-05-06 16:48:45 EM78BW > EM68WX 14.7 miles 283° 2021-05-06 16:48:45
N9AMN-3 2 2021-05-06 15:48:46 2021-05-06 16:08:46 EM69XO > EM69XV 20.3 miles 4° 2021-05-06 16:08:46
W9ICE-10 2 2021-05-06 15:40:01 2021-05-06 15:41:49 EM69XW > EM69VV 9.8 miles 252° 2021-05-06 15:40:01
N9LQP-2 2 2021-05-06 16:19:36 2021-05-06 16:28:45 EM79AK > EM79FF 25.6 miles 123° 2021-05-06 16:19:36
KA4MAP-3 2 2021-05-06 18:43:40 2021-05-06 18:54:26 EM77BR > EM67UX 29.6 miles 308° 2021-05-06 18:43:40
KK4ZDZ-10 2 2021-05-06 17:48:39 2021-05-06 17:53:39 EM77DX > EM78EC 8.0 miles 18° 2021-05-06 17:53:39
KY4KY-3 4 2021-05-06 17:58:40 2021-05-06 19:18:23 EM77BQ > EM78DB 27.7 miles 13° 2021-05-06 19:18:23
NA9VY-1 1 2021-05-06 16:43:45 2021-05-06 16:43:45 EM79BA > EM68WX 12.3 miles 258° 2021-05-06 16:43:45
KG4AFQ-10 1 2021-05-06 17:43:39 2021-05-06 17:43:39 EM78DD > EM78ED 3.9 miles 106° 2021-05-06 17:43:39
KC9URP-10 1 2021-05-06 15:53:45 2021-05-06 15:53:45 EM69XS > EM79BT 9.7 miles 85° 2021-05-06 15:53:45
W9MID-10 1 2021-05-06 16:18:45 2021-05-06 16:18:45 EM79AK > EM69XL 4.4 miles 303° 2021-05-06 16:18:45
W9MCP-10 2 2021-05-06 17:23:39 2021-05-06 17:28:39 EM78CL > EM78DH 10.8 miles 161° 2021-05-06 17:23:39
W9RCA-10 3 2021-05-06 15:43:37 2021-05-06 16:03:45 EM69XW > EM69US 16.5 miles 230° 2021-05-06 15:43:37
KY4DAG-4 1 2021-05-07 11:49:27 2021-05-07 11:49:27 EM77CG > EM77OE 53.2 miles 96° 2021-05-07 11:49:27
KK4TSS-10 1 2021-05-06 17:38:39 2021-05-06 17:38:39 EM78CF > EM78CE 2.1 miles 247° 2021-05-06 17:38:39
KD9RAZ-10 1 2021-05-06 17:33:39 2021-05-06 17:33:39 EM78CG > EM78CG 283.7 yards 218° 2021-05-06 17:33:39
KM4TEC 5 2021-05-05 14:38:33 2021-05-06 18:52:45 EM77BQ > EM77BQ 2.8 miles 323° 2021-05-05 15:26:02
NM4P-1 2 2021-05-02 07:57:07 2021-05-02 16:13:03 EM77CJ > EM77IC 32.0 miles 125° 2021-05-02 16:13:03

Only position packets which were originated by the station are shown here. The range statistics show some extra long hops, because some digipeaters do not correctly add themselves to the digipeater path. Please check the raw packets.
About this site
This page shows real-time information collected from the Automatic Position Reporting System Internet network (APRS-IS). APRS is used by amateur (ham) radio operators to transmit real-time position information, weather data, telemetry and messages over the radio. A vehicle equipped with a GPS receiver, a VHF transmitter or HF transceiver and a small computer device called a tracker transmits it's location, speed and course in a small data packet, which is then received by a nearby iGate receiving site which forwards the packet on the Internet. Systems connected to the Internet can send information on the APRS-IS without a radio transmitter, or collect and display information transmitted anywhere in the world.
User guide · FAQ · Blog · Discussion group · Linking to aprs.fi · AIS sites · Service status · Database statistics · Advertising on aprs.fi · Technical details · API · Change log · Planned changes · Credits and thanks · Terms Of Service · iPhone/iPad APRS